sensor_id;sensor_type;location;lat;lon;timestamp;pressure;altitude;pressure_sealevel;temperature;humidity
113;BME280;45999;48.808;9.182;2023-02-19T00:01:06;98631.28;;;9.33;nan
113;BME280;45999;48.808;9.182;2023-02-19T00:03:34;98634.47;;;9.50;nan
113;BME280;45999;48.808;9.182;2023-02-19T00:06:02;98627.91;;;9.46;nan
113;BME280;45999;48.808;9.182;2023-02-19T00:08:30;98625.59;;;9.36;nan
113;BME280;45999;48.808;9.182;2023-02-19T00:11:03;98623.34;;;9.33;nan
113;BME280;45999;48.808;9.182;2023-02-19T00:13:30;98624.13;;;9.27;nan
113;BME280;45999;48.808;9.182;2023-02-19T00:16:14;98619.03;;;9.32;nan
113;BME280;45999;48.808;9.182;2023-02-19T00:18:42;98622.13;;;9.29;nan
113;BME280;45999;48.808;9.182;2023-02-19T00:21:09;98618.03;;;9.33;nan
113;BME280;45999;48.808;9.182;2023-02-19T00:23:36;98622.31;;;9.28;nan
113;BME280;45999;48.808;9.182;2023-02-19T00:26:04;98613.53;;;9.34;nan
113;BME280;45999;48.808;9.182;2023-02-19T00:28:31;98620.50;;;9.35;nan
113;BME280;45999;48.808;9.182;2023-02-19T00:31:23;98623.13;;;9.35;nan
113;BME280;45999;48.808;9.182;2023-02-19T00:33:55;98610.28;;;9.32;nan
113;BME280;45999;48.808;9.182;2023-02-19T00:36:22;98614.16;;;9.36;nan
113;BME280;45999;48.808;9.182;2023-02-19T00:38:49;98621.56;;;9.47;nan
113;BME280;45999;48.808;9.182;2023-02-19T00:41:17;98620.94;;;9.45;nan
113;BME280;45999;48.808;9.182;2023-02-19T00:44:05;98618.34;;;9.58;nan
113;BME280;45999;48.808;9.182;2023-02-19T00:46:33;98623.22;;;9.54;nan
113;BME280;45999;48.808;9.182;2023-02-19T00:49:00;98618.53;;;9.56;nan
113;BME280;45999;48.808;9.182;2023-02-19T00:51:31;98623.03;;;9.56;nan
113;BME280;45999;48.808;9.182;2023-02-19T00:53:57;98619.34;;;9.57;nan
113;BME280;45999;48.808;9.182;2023-02-19T00:56:24;98629.16;;;9.50;nan
113;BME280;45999;48.808;9.182;2023-02-19T00:58:51;98625.91;;;9.61;nan
113;BME280;45999;48.808;9.182;2023-02-19T01:01:17;98613.22;;;9.50;nan
113;BME280;45999;48.808;9.182;2023-02-19T01:03:44;98610.34;;;9.51;nan
113;BME280;45999;48.808;9.182;2023-02-19T01:06:13;98604.66;;;9.54;nan
113;BME280;45999;48.808;9.182;2023-02-19T01:08:40;98602.25;;;9.72;nan
113;BME280;45999;48.808;9.182;2023-02-19T01:11:07;98604.31;;;9.77;nan
113;BME280;45999;48.808;9.182;2023-02-19T01:13:34;98586.94;;;9.74;nan
113;BME280;45999;48.808;9.182;2023-02-19T01:16:26;98589.38;;;9.76;nan
113;BME280;45999;48.808;9.182;2023-02-19T01:18:52;98589.19;;;9.77;nan
113;BME280;45999;48.808;9.182;2023-02-19T01:21:22;98593.94;;;9.88;nan
113;BME280;45999;48.808;9.182;2023-02-19T01:23:49;98588.81;;;9.87;nan
113;BME280;45999;48.808;9.182;2023-02-19T01:26:19;98584.13;;;9.95;nan
113;BME280;45999;48.808;9.182;2023-02-19T01:28:46;98579.22;;;9.92;nan
113;BME280;45999;48.808;9.182;2023-02-19T01:31:16;98584.50;;;9.92;nan
113;BME280;45999;48.808;9.182;2023-02-19T01:33:44;98572.91;;;10.00;nan
113;BME280;45999;48.808;9.182;2023-02-19T01:36:11;98572.69;;;10.01;nan
113;BME280;45999;48.808;9.182;2023-02-19T01:38:38;98571.72;;;10.09;nan
113;BME280;45999;48.808;9.182;2023-02-19T01:41:07;98573.72;;;10.00;nan
113;BME280;45999;48.808;9.182;2023-02-19T01:43:52;98574.13;;;10.04;nan
113;BME280;45999;48.808;9.182;2023-02-19T01:46:20;98579.06;;;10.07;nan
113;BME280;45999;48.808;9.182;2023-02-19T01:48:46;98581.13;;;10.05;nan
113;BME280;45999;48.808;9.182;2023-02-19T01:51:16;98577.03;;;10.09;nan
113;BME280;45999;48.808;9.182;2023-02-19T01:53:45;98587.22;;;10.05;nan
113;BME280;45999;48.808;9.182;2023-02-19T01:56:14;98581.91;;;10.05;nan
113;BME280;45999;48.808;9.182;2023-02-19T01:58:42;98568.44;;;10.07;nan
113;BME280;45999;48.808;9.182;2023-02-19T02:01:08;98559.03;;;10.11;nan
113;BME280;45999;48.808;9.182;2023-02-19T02:03:37;98568.84;;;10.10;nan
113;BME280;45999;48.808;9.182;2023-02-19T02:06:23;98568.03;;;10.10;nan
113;BME280;45999;48.808;9.182;2023-02-19T02:08:50;98571.69;;;10.02;nan
113;BME280;45999;48.808;9.182;2023-02-19T02:11:38;98571.28;;;10.05;nan
113;BME280;45999;48.808;9.182;2023-02-19T02:14:05;98578.63;;;10.03;nan
113;BME280;45999;48.808;9.182;2023-02-19T02:16:54;98572.28;;;9.98;nan
113;BME280;45999;48.808;9.182;2023-02-19T02:22:35;98571.00;;;9.81;nan
113;BME280;45999;48.808;9.182;2023-02-19T02:25:18;98565.72;;;9.68;nan
113;BME280;45999;48.808;9.182;2023-02-19T02:30:39;98547.81;;;9.36;nan
113;BME280;45999;48.808;9.182;2023-02-19T02:36:17;98532.06;;;9.21;nan
113;BME280;45999;48.808;9.182;2023-02-19T02:38:46;98539.81;;;9.16;nan
113;BME280;45999;48.808;9.182;2023-02-19T02:41:14;98541.25;;;9.19;nan
113;BME280;45999;48.808;9.182;2023-02-19T02:43:41;98530.63;;;9.19;nan
113;BME280;45999;48.808;9.182;2023-02-19T02:46:12;98532.88;;;9.22;nan
113;BME280;45999;48.808;9.182;2023-02-19T02:48:54;98531.63;;;9.18;nan
113;BME280;45999;48.808;9.182;2023-02-19T02:51:32;98540.63;;;9.17;nan
113;BME280;45999;48.808;9.182;2023-02-19T02:54:18;98540.41;;;9.18;nan
113;BME280;45999;48.808;9.182;2023-02-19T02:57:04;98530.66;;;9.25;nan
113;BME280;45999;48.808;9.182;2023-02-19T02:59:36;98536.78;;;9.26;nan
113;BME280;45999;48.808;9.182;2023-02-19T03:02:14;98536.97;;;9.24;nan
113;BME280;45999;48.808;9.182;2023-02-19T03:04:53;98540.44;;;9.25;nan
113;BME280;45999;48.808;9.182;2023-02-19T03:10:16;98533.28;;;9.19;nan
113;BME280;45999;48.808;9.182;2023-02-19T03:12:47;98530.63;;;9.19;nan
113;BME280;45999;48.808;9.182;2023-02-19T03:15:40;98533.84;;;9.08;nan
113;BME280;45999;48.808;9.182;2023-02-19T03:18:29;98533.44;;;9.04;nan
113;BME280;45999;48.808;9.182;2023-02-19T03:21:15;98531.78;;;9.03;nan
113;BME280;45999;48.808;9.182;2023-02-19T03:23:44;98523.19;;;9.01;nan
113;BME280;45999;48.808;9.182;2023-02-19T03:26:31;98525.63;;;8.96;nan
113;BME280;45999;48.808;9.182;2023-02-19T03:29:00;98530.53;;;8.93;nan
113;BME280;45999;48.808;9.182;2023-02-19T03:31:51;98523.41;;;8.93;nan
113;BME280;45999;48.808;9.182;2023-02-19T03:34:22;98525.03;;;8.94;nan
113;BME280;45999;48.808;9.182;2023-02-19T03:36:59;98516.44;;;8.92;nan
113;BME280;45999;48.808;9.182;2023-02-19T03:39:27;98525.00;;;8.88;nan
113;BME280;45999;48.808;9.182;2023-02-19T03:42:01;98525.00;;;8.88;nan
113;BME280;45999;48.808;9.182;2023-02-19T03:44:46;98521.31;;;8.89;nan
113;BME280;45999;48.808;9.182;2023-02-19T03:47:50;98525.59;;;8.90;nan
113;BME280;45999;48.808;9.182;2023-02-19T03:50:24;98530.06;;;8.83;nan
113;BME280;45999;48.808;9.182;2023-02-19T03:55:29;98531.53;;;8.92;nan
113;BME280;45999;48.808;9.182;2023-02-19T04:00:52;98535.41;;;8.89;nan
113;BME280;45999;48.808;9.182;2023-02-19T04:03:28;98533.75;;;8.82;nan
113;BME280;45999;48.808;9.182;2023-02-19T04:06:00;98541.47;;;8.83;nan
113;BME280;45999;48.808;9.182;2023-02-19T04:08:28;98536.16;;;8.83;nan
113;BME280;45999;48.808;9.182;2023-02-19T04:10:57;98543.13;;;8.84;nan
113;BME280;45999;48.808;9.182;2023-02-19T04:13:35;98545.56;;;8.86;nan
113;BME280;45999;48.808;9.182;2023-02-19T04:16:06;98553.50;;;8.86;nan
113;BME280;45999;48.808;9.182;2023-02-19T04:18:36;98548.84;;;8.88;nan
113;BME280;45999;48.808;9.182;2023-02-19T04:21:05;98553.50;;;8.86;nan
113;BME280;45999;48.808;9.182;2023-02-19T04:23:37;98556.63;;;8.89;nan
113;BME280;45999;48.808;9.182;2023-02-19T04:26:05;98561.72;;;8.91;nan
113;BME280;45999;48.808;9.182;2023-02-19T04:28:33;98556.63;;;8.89;nan
113;BME280;45999;48.808;9.182;2023-02-19T04:31:00;98553.78;;;8.91;nan
113;BME280;45999;48.808;9.182;2023-02-19T04:33:27;98564.94;;;8.86;nan
113;BME280;45999;48.808;9.182;2023-02-19T04:35:53;98579.06;;;8.93;nan
113;BME280;45999;48.808;9.182;2023-02-19T04:38:19;98579.47;;;8.90;nan
113;BME280;45999;48.808;9.182;2023-02-19T04:40:46;98575.19;;;8.89;nan
113;BME280;45999;48.808;9.182;2023-02-19T04:43:13;98569.69;;;8.91;nan
113;BME280;45999;48.808;9.182;2023-02-19T04:45:39;98580.66;;;8.88;nan
113;BME280;45999;48.808;9.182;2023-02-19T04:48:05;98581.47;;;8.82;nan
113;BME280;45999;48.808;9.182;2023-02-19T04:50:32;98586.38;;;8.91;nan
113;BME280;45999;48.808;9.182;2023-02-19T04:52:58;98591.50;;;8.93;nan
113;BME280;45999;48.808;9.182;2023-02-19T04:55:25;98590.03;;;8.84;nan
113;BME280;45999;48.808;9.182;2023-02-19T04:57:51;98597.38;;;8.82;nan
113;BME280;45999;48.808;9.182;2023-02-19T05:00:17;98607.00;;;8.89;nan
113;BME280;45999;48.808;9.182;2023-02-19T05:02:44;98605.78;;;8.92;nan
113;BME280;45999;48.808;9.182;2023-02-19T05:05:10;98602.53;;;8.96;nan
113;BME280;45999;48.808;9.182;2023-02-19T05:07:36;98599.50;;;8.99;nan
113;BME280;45999;48.808;9.182;2023-02-19T05:10:03;98594.38;;;8.98;nan
113;BME280;45999;48.808;9.182;2023-02-19T05:12:29;98610.94;;;9.00;nan
113;BME280;45999;48.808;9.182;2023-02-19T05:14:56;98597.63;;;8.93;nan
113;BME280;45999;48.808;9.182;2023-02-19T05:17:22;98605.81;;;8.98;nan
113;BME280;45999;48.808;9.182;2023-02-19T05:19:49;98615.59;;;8.98;nan
113;BME280;45999;48.808;9.182;2023-02-19T05:22:15;98619.09;;;8.98;nan
113;BME280;45999;48.808;9.182;2023-02-19T05:24:41;98614.59;;;8.99;nan
113;BME280;45999;48.808;9.182;2023-02-19T05:27:08;98612.94;;;8.98;nan
113;BME280;45999;48.808;9.182;2023-02-19T05:29:34;98597.47;;;9.01;nan
113;BME280;45999;48.808;9.182;2023-02-19T05:32:01;98606.22;;;8.95;nan
113;BME280;45999;48.808;9.182;2023-02-19T05:34:27;98610.53;;;9.03;nan
113;BME280;45999;48.808;9.182;2023-02-19T05:36:53;98617.03;;;9.00;nan
113;BME280;45999;48.808;9.182;2023-02-19T05:39:20;98622.13;;;8.95;nan
113;BME280;45999;48.808;9.182;2023-02-19T05:41:46;98632.31;;;8.92;nan
113;BME280;45999;48.808;9.182;2023-02-19T05:44:12;98619.28;;;8.97;nan
113;BME280;45999;48.808;9.182;2023-02-19T05:46:39;98624.56;;;8.97;nan
113;BME280;45999;48.808;9.182;2023-02-19T05:49:05;98621.28;;;8.95;nan
113;BME280;45999;48.808;9.182;2023-02-19T05:51:32;98638.63;;;8.91;nan
113;BME280;45999;48.808;9.182;2023-02-19T05:53:58;98619.81;;;8.86;nan
113;BME280;45999;48.808;9.182;2023-02-19T05:58:51;98632.06;;;8.87;nan
113;BME280;45999;48.808;9.182;2023-02-19T06:01:20;98636.97;;;8.90;nan
113;BME280;45999;48.808;9.182;2023-02-19T06:03:47;98640.63;;;8.89;nan
113;BME280;45999;48.808;9.182;2023-02-19T06:06:14;98639.38;;;8.85;nan
113;BME280;45999;48.808;9.182;2023-02-19T06:08:41;98639.38;;;8.85;nan
113;BME280;45999;48.808;9.182;2023-02-19T06:11:07;98638.56;;;8.84;nan
113;BME280;45999;48.808;9.182;2023-02-19T06:13:34;98642.22;;;8.83;nan
113;BME280;45999;48.808;9.182;2023-02-19T06:16:03;98653.22;;;8.80;nan
113;BME280;45999;48.808;9.182;2023-02-19T06:18:30;98651.56;;;8.79;nan
113;BME280;45999;48.808;9.182;2023-02-19T06:21:04;98663.84;;;8.80;nan
113;BME280;45999;48.808;9.182;2023-02-19T06:23:31;98660.72;;;8.77;nan
113;BME280;45999;48.808;9.182;2023-02-19T06:26:10;98661.75;;;8.76;nan
113;BME280;45999;48.808;9.182;2023-02-19T06:28:37;98657.28;;;8.76;nan
113;BME280;45999;48.808;9.182;2023-02-19T06:31:04;98653.56;;;8.71;nan
113;BME280;45999;48.808;9.182;2023-02-19T06:33:31;98658.06;;;8.77;nan
113;BME280;45999;48.808;9.182;2023-02-19T06:36:00;98672.34;;;8.76;nan
113;BME280;45999;48.808;9.182;2023-02-19T06:38:27;98663.19;;;8.78;nan
113;BME280;45999;48.808;9.182;2023-02-19T06:40:54;98671.97;;;8.79;nan
113;BME280;45999;48.808;9.182;2023-02-19T06:43:20;98661.19;;;8.80;nan
113;BME280;45999;48.808;9.182;2023-02-19T06:45:46;98668.53;;;8.85;nan
113;BME280;45999;48.808;9.182;2023-02-19T06:48:13;98683.28;;;8.94;nan
113;BME280;45999;48.808;9.182;2023-02-19T06:50:39;98698.59;;;8.92;nan
113;BME280;45999;48.808;9.182;2023-02-19T06:53:06;98693.91;;;8.94;nan
113;BME280;45999;48.808;9.182;2023-02-19T06:55:33;98696.38;;;8.95;nan
113;BME280;45999;48.808;9.182;2023-02-19T06:57:59;98709.25;;;8.98;nan
113;BME280;45999;48.808;9.182;2023-02-19T07:00:25;98714.75;;;8.97;nan
113;BME280;45999;48.808;9.182;2023-02-19T07:02:52;98714.97;;;9.02;nan
113;BME280;45999;48.808;9.182;2023-02-19T07:05:22;98708.84;;;9.01;nan
113;BME280;45999;48.808;9.182;2023-02-19T07:07:49;98713.59;;;9.06;nan
113;BME280;45999;48.808;9.182;2023-02-19T07:10:15;98708.91;;;9.08;nan
113;BME280;45999;48.808;9.182;2023-02-19T07:12:42;98718.75;;;9.14;nan
113;BME280;45999;48.808;9.182;2023-02-19T07:15:09;98718.75;;;9.14;nan
113;BME280;45999;48.808;9.182;2023-02-19T07:17:36;98717.03;;;9.06;nan
113;BME280;45999;48.808;9.182;2023-02-19T07:20:02;98710.34;;;9.10;nan
113;BME280;45999;48.808;9.182;2023-02-19T07:22:29;98723.41;;;9.12;nan
113;BME280;45999;48.808;9.182;2023-02-19T07:24:55;98726.91;;;9.12;nan
113;BME280;45999;48.808;9.182;2023-02-19T07:27:21;98739.34;;;9.12;nan
113;BME280;45999;48.808;9.182;2023-02-19T07:29:48;98733.78;;;9.07;nan
113;BME280;45999;48.808;9.182;2023-02-19T07:32:14;98730.94;;;9.08;nan
113;BME280;45999;48.808;9.182;2023-02-19T07:34:40;98728.72;;;9.12;nan
113;BME280;45999;48.808;9.182;2023-02-19T07:37:07;98739.97;;;9.14;nan
113;BME280;45999;48.808;9.182;2023-02-19T07:39:33;98737.97;;;9.22;nan
113;BME280;45999;48.808;9.182;2023-02-19T07:42:00;98731.84;;;9.22;nan
113;BME280;45999;48.808;9.182;2023-02-19T07:44:26;98746.97;;;9.21;nan
113;BME280;45999;48.808;9.182;2023-02-19T07:46:52;98747.00;;;9.28;nan
113;BME280;45999;48.808;9.182;2023-02-19T07:49:19;98742.91;;;9.25;nan
113;BME280;45999;48.808;9.182;2023-02-19T07:51:45;98755.81;;;9.35;nan
113;BME280;45999;48.808;9.182;2023-02-19T07:54:12;98756.47;;;9.37;nan
113;BME280;45999;48.808;9.182;2023-02-19T07:56:38;98752.78;;;9.38;nan
113;BME280;45999;48.808;9.182;2023-02-19T07:59:04;98763.59;;;9.36;nan
113;BME280;45999;48.808;9.182;2023-02-19T08:01:31;98768.94;;;9.43;nan
113;BME280;45999;48.808;9.182;2023-02-19T08:04:15;98758.50;;;9.41;nan
113;BME280;45999;48.808;9.182;2023-02-19T08:06:41;98760.16;;;9.42;nan
113;BME280;45999;48.808;9.182;2023-02-19T08:09:08;98753.03;;;9.43;nan
113;BME280;45999;48.808;9.182;2023-02-19T08:11:35;98757.16;;;9.52;nan
113;BME280;45999;48.808;9.182;2023-02-19T08:14:22;98758.19;;;9.51;nan
113;BME280;45999;48.808;9.182;2023-02-19T08:16:49;98759.81;;;9.52;nan
113;BME280;45999;48.808;9.182;2023-02-19T08:19:16;98752.91;;;9.57;nan
113;BME280;45999;48.808;9.182;2023-02-19T08:21:43;98754.97;;;9.62;nan
113;BME280;45999;48.808;9.182;2023-02-19T08:24:09;98759.03;;;9.58;nan
113;BME280;45999;48.808;9.182;2023-02-19T08:26:36;98757.47;;;9.70;nan
113;BME280;45999;48.808;9.182;2023-02-19T08:29:04;98769.19;;;9.82;nan
113;BME280;45999;48.808;9.182;2023-02-19T08:31:32;98775.53;;;9.87;nan
113;BME280;45999;48.808;9.182;2023-02-19T08:33:59;98783.22;;;9.76;nan
113;BME280;45999;48.808;9.182;2023-02-19T08:36:25;98777.53;;;9.79;nan
113;BME280;45999;48.808;9.182;2023-02-19T08:38:52;98792.25;;;9.81;nan
113;BME280;45999;48.808;9.182;2023-02-19T08:41:20;98782.06;;;9.85;nan
113;BME280;45999;48.808;9.182;2023-02-19T08:43:47;98793.47;;;9.79;nan
113;BME280;45999;48.808;9.182;2023-02-19T08:46:13;98788.34;;;9.77;nan
113;BME280;45999;48.808;9.182;2023-02-19T08:48:40;98787.31;;;9.78;nan
113;BME280;45999;48.808;9.182;2023-02-19T08:51:08;98791.84;;;9.78;nan
113;BME280;45999;48.808;9.182;2023-02-19T08:53:37;98799.84;;;9.84;nan
113;BME280;45999;48.808;9.182;2023-02-19T08:56:05;98801.09;;;9.88;nan
113;BME280;45999;48.808;9.182;2023-02-19T08:58:32;98807.13;;;9.76;nan
113;BME280;45999;48.808;9.182;2023-02-19T09:00:58;98809.53;;;9.71;nan
113;BME280;45999;48.808;9.182;2023-02-19T09:03:24;98807.31;;;9.68;nan
113;BME280;45999;48.808;9.182;2023-02-19T09:05:51;98812.56;;;9.61;nan
113;BME280;45999;48.808;9.182;2023-02-19T09:08:17;98816.03;;;9.62;nan
113;BME280;45999;48.808;9.182;2023-02-19T09:10:44;98818.59;;;9.49;nan
113;BME280;45999;48.808;9.182;2023-02-19T09:13:10;98821.53;;;9.33;nan
113;BME280;45999;48.808;9.182;2023-02-19T09:15:37;98823.78;;;9.36;nan
113;BME280;45999;48.808;9.182;2023-02-19T09:18:03;98828.13;;;9.37;nan
113;BME280;45999;48.808;9.182;2023-02-19T09:20:30;98837.16;;;9.49;nan
113;BME280;45999;48.808;9.182;2023-02-19T09:22:57;98825.19;;;9.59;nan
113;BME280;45999;48.808;9.182;2023-02-19T09:25:24;98828.31;;;9.69;nan
113;BME280;45999;48.808;9.182;2023-02-19T09:27:54;98825.56;;;9.84;nan
113;BME280;45999;48.808;9.182;2023-02-19T09:30:23;98847.47;;;9.86;nan
113;BME280;45999;48.808;9.182;2023-02-19T09:32:49;98855.25;;;9.94;nan
113;BME280;45999;48.808;9.182;2023-02-19T09:35:16;98855.28;;;10.00;nan
113;BME280;45999;48.808;9.182;2023-02-19T09:37:42;98853.03;;;10.04;nan
113;BME280;45999;48.808;9.182;2023-02-19T09:40:09;98858.31;;;10.25;nan
113;BME280;45999;48.808;9.182;2023-02-19T09:42:38;98860.75;;;10.20;nan
113;BME280;45999;48.808;9.182;2023-02-19T09:45:05;98844.41;;;10.23;nan
113;BME280;45999;48.808;9.182;2023-02-19T09:47:33;98850.16;;;10.26;nan
113;BME280;45999;48.808;9.182;2023-02-19T09:50:06;98859.97;;;10.32;nan
113;BME280;45999;48.808;9.182;2023-02-19T09:52:40;98858.03;;;10.13;nan
113;BME280;45999;48.808;9.182;2023-02-19T09:55:33;98871.59;;;10.25;nan
113;BME280;45999;48.808;9.182;2023-02-19T09:58:05;98853.44;;;10.35;nan
113;BME280;45999;48.808;9.182;2023-02-19T10:00:34;98859.22;;;10.38;nan
113;BME280;45999;48.808;9.182;2023-02-19T10:03:04;98856.78;;;10.43;nan
113;BME280;45999;48.808;9.182;2023-02-19T10:05:32;98861.94;;;10.64;nan
113;BME280;45999;48.808;9.182;2023-02-19T10:08:01;98867.28;;;10.71;nan
113;BME280;45999;48.808;9.182;2023-02-19T10:10:31;98855.25;;;10.81;nan
113;BME280;45999;48.808;9.182;2023-02-19T10:13:21;98847.50;;;10.93;nan
113;BME280;45999;48.808;9.182;2023-02-19T10:15:51;98852.00;;;10.86;nan
113;BME280;45999;48.808;9.182;2023-02-19T10:18:24;98865.31;;;10.86;nan
113;BME280;45999;48.808;9.182;2023-02-19T10:20:52;98876.94;;;10.85;nan
113;BME280;45999;48.808;9.182;2023-02-19T10:23:19;98873.72;;;10.96;nan
113;BME280;45999;48.808;9.182;2023-02-19T10:25:52;98863.06;;;10.96;nan
113;BME280;45999;48.808;9.182;2023-02-19T10:28:22;98878.63;;;11.12;nan
113;BME280;45999;48.808;9.182;2023-02-19T10:30:53;98879.41;;;10.86;nan
113;BME280;45999;48.808;9.182;2023-02-19T10:33:21;98882.28;;;10.91;nan
113;BME280;45999;48.808;9.182;2023-02-19T10:38:32;98890.25;;;10.85;nan
113;BME280;45999;48.808;9.182;2023-02-19T10:41:17;98903.22;;;11.07;nan
113;BME280;45999;48.808;9.182;2023-02-19T10:46:27;98906.88;;;11.00;nan
113;BME280;45999;48.808;9.182;2023-02-19T10:49:00;98904.63;;;11.03;nan
113;BME280;45999;48.808;9.182;2023-02-19T10:51:34;98908.91;;;10.98;nan
113;BME280;45999;48.808;9.182;2023-02-19T10:54:18;98913.03;;;11.07;nan
113;BME280;45999;48.808;9.182;2023-02-19T10:56:45;98915.25;;;10.97;nan
113;BME280;45999;48.808;9.182;2023-02-19T11:01:58;98909.13;;;11.03;nan
113;BME280;45999;48.808;9.182;2023-02-19T11:04:27;98911.22;;;11.14;nan
113;BME280;45999;48.808;9.182;2023-02-19T11:07:00;98910.78;;;11.17;nan
113;BME280;45999;48.808;9.182;2023-02-19T11:09:36;98908.97;;;11.24;nan
113;BME280;45999;48.808;9.182;2023-02-19T11:12:03;98903.22;;;11.07;nan
113;BME280;45999;48.808;9.182;2023-02-19T11:14:31;98904.44;;;11.12;nan
113;BME280;45999;48.808;9.182;2023-02-19T11:17:00;98905.63;;;10.96;nan
113;BME280;45999;48.808;9.182;2023-02-19T11:19:38;98915.31;;;11.17;nan
113;BME280;45999;48.808;9.182;2023-02-19T11:22:38;98912.25;;;11.13;nan
113;BME280;45999;48.808;9.182;2023-02-19T11:27:35;98911.16;;;11.01;nan
113;BME280;45999;48.808;9.182;2023-02-19T11:30:32;98908.28;;;10.42;nan
113;BME280;45999;48.808;9.182;2023-02-19T11:35:45;98881.81;;;10.68;nan
113;BME280;45999;48.808;9.182;2023-02-19T11:38:14;98893.84;;;10.64;nan
113;BME280;45999;48.808;9.182;2023-02-19T11:40:49;98888.56;;;10.71;nan
113;BME280;45999;48.808;9.182;2023-02-19T11:43:27;98901.03;;;10.64;nan
113;BME280;45999;48.808;9.182;2023-02-19T11:46:11;98909.66;;;10.79;nan
113;BME280;45999;48.808;9.182;2023-02-19T12:00:01;98922.44;;;11.09;nan
113;BME280;45999;48.808;9.182;2023-02-19T12:11:14;98930.66;;;11.21;nan
113;BME280;45999;48.808;9.182;2023-02-19T12:16:30;98924.25;;;10.96;nan
113;BME280;45999;48.808;9.182;2023-02-19T12:22:04;98915.25;;;10.97;nan
113;BME280;45999;48.808;9.182;2023-02-19T12:38:42;98911.81;;;11.16;nan
113;BME280;45999;48.808;9.182;2023-02-19T12:41:29;98921.19;;;11.05;nan
113;BME280;45999;48.808;9.182;2023-02-19T12:44:08;98920.56;;;10.97;nan
113;BME280;45999;48.808;9.182;2023-02-19T12:46:38;98912.78;;;10.95;nan
113;BME280;45999;48.808;9.182;2023-02-19T12:49:27;98915.53;;;11.22;nan
113;BME280;45999;48.808;9.182;2023-02-19T12:52:00;98903.03;;;11.16;nan
113;BME280;45999;48.808;9.182;2023-02-19T12:54:33;98899.16;;;11.25;nan
113;BME280;45999;48.808;9.182;2023-02-19T12:57:11;98903.84;;;11.29;nan
113;BME280;45999;48.808;9.182;2023-02-19T12:59:54;98915.31;;;11.17;nan
113;BME280;45999;48.808;9.182;2023-02-19T13:05:39;98895.69;;;11.50;nan
113;BME280;45999;48.808;9.182;2023-02-19T13:08:55;98910.63;;;11.38;nan
113;BME280;45999;48.808;9.182;2023-02-19T13:11:30;98915.91;;;11.12;nan
113;BME280;45999;48.808;9.182;2023-02-19T13:14:03;98913.41;;;10.91;nan
113;BME280;45999;48.808;9.182;2023-02-19T13:16:33;98901.72;;;10.85;nan
113;BME280;45999;48.808;9.182;2023-02-19T13:19:03;98916.63;;;10.80;nan
113;BME280;45999;48.808;9.182;2023-02-19T13:21:33;98906.38;;;10.70;nan
113;BME280;45999;48.808;9.182;2023-02-19T13:24:24;98898.63;;;10.75;nan
113;BME280;45999;48.808;9.182;2023-02-19T13:27:15;98903.88;;;10.62;nan
113;BME280;45999;48.808;9.182;2023-02-19T13:32:39;98910.81;;;10.57;nan
113;BME280;45999;48.808;9.182;2023-02-19T13:38:00;98906.13;;;10.59;nan
113;BME280;45999;48.808;9.182;2023-02-19T13:40:33;98910.00;;;10.56;nan
113;BME280;45999;48.808;9.182;2023-02-19T13:43:02;98904.66;;;10.50;nan
113;BME280;45999;48.808;9.182;2023-02-19T13:45:42;98908.34;;;10.55;nan
113;BME280;45999;48.808;9.182;2023-02-19T13:48:26;98903.44;;;10.52;nan
113;BME280;45999;48.808;9.182;2023-02-19T13:59:12;98896.34;;;10.25;nan
113;BME280;45999;48.808;9.182;2023-02-19T14:14:42;98887.56;;;9.97;nan
113;BME280;45999;48.808;9.182;2023-02-19T14:27:50;98904.34;;;10.32;nan
113;BME280;45999;48.808;9.182;2023-02-19T14:30:17;98902.13;;;10.35;nan
113;BME280;45999;48.808;9.182;2023-02-19T14:32:44;98902.75;;;10.44;nan
113;BME280;45999;48.808;9.182;2023-02-19T14:35:18;98905.66;;;10.49;nan
113;BME280;45999;48.808;9.182;2023-02-19T14:37:46;98912.41;;;10.51;nan
113;BME280;45999;48.808;9.182;2023-02-19T14:40:22;98907.13;;;10.58;nan
113;BME280;45999;48.808;9.182;2023-02-19T14:42:52;98908.56;;;10.54;nan
113;BME280;45999;48.808;9.182;2023-02-19T14:45:20;98909.00;;;10.64;nan
113;BME280;45999;48.808;9.182;2023-02-19T14:47:47;98913.69;;;10.62;nan
113;BME280;45999;48.808;9.182;2023-02-19T14:50:29;98920.63;;;10.56;nan
113;BME280;45999;48.808;9.182;2023-02-19T14:52:59;98932.72;;;10.59;nan
113;BME280;45999;48.808;9.182;2023-02-19T14:55:34;98924.31;;;10.62;nan
113;BME280;45999;48.808;9.182;2023-02-19T14:58:11;98928.00;;;10.61;nan
113;BME280;45999;48.808;9.182;2023-02-19T15:00:40;98928.38;;;10.58;nan
113;BME280;45999;48.808;9.182;2023-02-19T15:05:55;98934.72;;;10.57;nan
113;BME280;45999;48.808;9.182;2023-02-19T15:08:28;98938.41;;;10.56;nan
113;BME280;45999;48.808;9.182;2023-02-19T15:10:57;98950.53;;;10.65;nan
113;BME280;45999;48.808;9.182;2023-02-19T15:13:26;98957.88;;;10.56;nan
113;BME280;45999;48.808;9.182;2023-02-19T15:15:53;98956.41;;;10.54;nan
113;BME280;45999;48.808;9.182;2023-02-19T15:18:23;98958.41;;;10.45;nan
113;BME280;45999;48.808;9.182;2023-02-19T15:20:57;98961.69;;;10.47;nan
113;BME280;45999;48.808;9.182;2023-02-19T15:23:24;98965.16;;;10.48;nan
113;BME280;45999;48.808;9.182;2023-02-19T15:25:52;98973.38;;;10.53;nan
113;BME280;45999;48.808;9.182;2023-02-19T15:33:26;98979.06;;;10.43;nan
113;BME280;45999;48.808;9.182;2023-02-19T15:35:55;98986.19;;;10.43;nan
113;BME280;45999;48.808;9.182;2023-02-19T15:38:23;98982.50;;;10.44;nan
113;BME280;45999;48.808;9.182;2023-02-19T15:40:50;98979.06;;;10.43;nan
113;BME280;45999;48.808;9.182;2023-02-19T15:43:24;98985.13;;;10.37;nan
113;BME280;45999;48.808;9.182;2023-02-19T15:46:17;98984.72;;;10.34;nan
113;BME280;45999;48.808;9.182;2023-02-19T15:49:08;98977.13;;;10.31;nan
113;BME280;45999;48.808;9.182;2023-02-19T15:54:35;98972.63;;;10.31;nan
113;BME280;45999;48.808;9.182;2023-02-19T15:57:04;98987.31;;;10.27;nan
113;BME280;45999;48.808;9.182;2023-02-19T15:59:38;98966.66;;;10.23;nan
113;BME280;45999;48.808;9.182;2023-02-19T16:02:10;98973.78;;;10.22;nan
113;BME280;45999;48.808;9.182;2023-02-19T16:04:39;98983.84;;;10.27;nan
113;BME280;45999;48.808;9.182;2023-02-19T16:07:22;98989.56;;;10.24;nan
113;BME280;45999;48.808;9.182;2023-02-19T16:10:11;98985.03;;;10.18;nan
113;BME280;45999;48.808;9.182;2023-02-19T16:12:41;98995.38;;;10.13;nan
113;BME280;45999;48.808;9.182;2023-02-19T16:15:13;98984.56;;;10.14;nan
113;BME280;45999;48.808;9.182;2023-02-19T16:17:43;98984.50;;;10.08;nan